Time;durP1;ratioP1;P1;durP2;ratioP2;P2;SDS_P1;SDS_P2;PMS_P1;PMS_P2;Temp;Humidity;BMP_temperature;BMP_pressure;BME280_temperature;BME280_humidity;BME280_pressure;Samples;Min_cycle;Max_cycle;Signal;HPM_P1;HPM_P2
2022/03/09 00:00:11;;;;;;;12.07;4.22;;;;;;;-0.02;83.55;97073.50;4997601;28;20034;-72
2022/03/09 00:02:37;;;;;;;10.20;4.60;;;;;;;-0.07;82.57;97079.28;4996379;28;20041;-74
2022/03/09 00:05:03;;;;;;;10.02;4.53;;;;;;;-0.18;84.07;97074.34;4996636;28;20041;-71
2022/03/09 00:07:28;;;;;;;8.60;4.50;;;;;;;-0.19;84.41;97079.78;4993550;28;20069;-74
2022/03/09 00:09:54;;;;;;;11.43;4.22;;;;;;;-0.15;82.88;97075.84;4993902;28;20465;-73
2022/03/09 00:12:20;;;;;;;9.80;4.30;;;;;;;-0.17;83.67;97067.28;4995457;28;20378;-72
2022/03/09 00:14:46;;;;;;;8.57;3.55;;;;;;;-0.14;82.91;97075.69;4995360;28;20037;-75
2022/03/09 00:17:12;;;;;;;9.50;4.07;;;;;;;-0.15;83.71;97074.03;4995450;28;20038;-74
2022/03/09 00:19:38;;;;;;;7.13;4.32;;;;;;;-0.25;84.05;97078.63;4996991;28;20343;-71
2022/03/09 00:22:04;;;;;;;9.05;4.22;;;;;;;-0.29;83.76;97083.41;4998062;28;20041;-75
2022/03/09 00:24:29;;;;;;;8.65;3.80;;;;;;;-0.30;83.53;97083.59;4997140;28;20254;-72
2022/03/09 00:26:56;;;;;;;9.02;4.18;;;;;;;-0.34;84.72;97088.34;4997537;28;20380;-71
2022/03/09 00:29:21;;;;;;;7.25;3.55;;;;;;;-0.40;85.44;97083.72;4995736;28;20141;-71
2022/03/09 00:31:47;;;;;;;9.57;3.85;;;;;;;-0.38;84.51;97083.59;4996292;28;20725;-75
2022/03/09 00:34:13;;;;;;;9.32;4.75;;;;;;;-0.43;84.73;97081.44;4997143;28;20480;-72
2022/03/09 00:36:39;;;;;;;10.40;4.63;;;;;;;-0.43;85.36;97093.78;4997672;28;20380;-71
2022/03/09 00:39:04;;;;;;;9.38;4.53;;;;;;;-0.54;85.77;97088.81;4998349;28;20121;-71
2022/03/09 00:41:30;;;;;;;12.75;5.22;;;;;;;-0.57;85.92;97096.06;4997076;28;20045;-71
2022/03/09 00:43:55;;;;;;;10.38;4.95;;;;;;;-0.63;86.92;97096.69;4995224;28;20048;-71
2022/03/09 00:46:21;;;;;;;12.43;4.95;;;;;;;-0.62;87.76;97090.50;4997694;28;20469;-73
2022/03/09 00:48:47;;;;;;;9.18;4.65;;;;;;;-0.59;87.86;97086.69;4993399;28;20431;-74
2022/03/09 00:51:12;;;;;;;7.63;4.38;;;;;;;-0.50;87.13;97093.59;4992783;28;20468;-71
2022/03/09 00:53:38;;;;;;;8.63;3.53;;;;;;;-0.40;86.03;97085.53;4997042;28;20080;-71
2022/03/09 00:56:05;;;;;;;14.35;4.68;;;;;;;-0.38;85.01;97092.31;4994198;28;20030;-74
2022/03/09 00:58:30;;;;;;;8.77;4.65;;;;;;;-0.41;85.20;97078.66;4995302;28;20489;-74
2022/03/09 01:00:56;;;;;;;5.60;2.45;;;;;;;-0.32;85.92;97096.06;4995888;28;20662;-72
2022/03/09 01:03:22;;;;;;;9.00;4.78;;;;;;;-0.32;84.89;97086.38;4995139;28;20258;-71
2022/03/09 01:05:47;;;;;;;10.43;4.22;;;;;;;-0.35;84.65;97078.00;4992950;28;20367;-74
2022/03/09 01:08:13;;;;;;;10.10;4.32;;;;;;;-0.33;85.01;97097.06;4994573;28;20406;-75
2022/03/09 01:10:39;;;;;;;7.50;4.22;;;;;;;-0.38;85.37;97100.19;4996175;28;20237;-75
2022/03/09 01:13:04;;;;;;;9.43;4.38;;;;;;;-0.43;86.34;97101.66;4995926;28;20041;-73
2022/03/09 01:15:31;;;;;;;8.73;4.45;;;;;;;-0.47;86.09;97095.91;4996028;28;20401;-75
2022/03/09 01:17:57;;;;;;;7.70;4.05;;;;;;;-0.49;86.25;97108.38;4995115;28;20038;-71
2022/03/09 01:20:22;;;;;;;9.02;4.68;;;;;;;-0.55;87.01;97101.16;4994315;28;20197;-71
2022/03/09 01:22:48;;;;;;;12.95;4.50;;;;;;;-0.59;87.34;97098.03;4993484;28;20112;-75
2022/03/09 01:25:14;;;;;;;9.15;4.43;;;;;;;-0.61;87.68;97094.75;4995607;28;20030;-72
2022/03/09 01:27:39;;;;;;;7.10;3.80;;;;;;;-0.61;88.16;97096.56;4992918;28;20367;-73
2022/03/09 01:30:06;;;;;;;9.40;3.72;;;;;;;-0.60;88.80;97087.69;4996425;28;20107;-72
2022/03/09 01:32:31;;;;;;;7.38;3.55;;;;;;;-0.48;86.77;97091.63;4993471;28;20122;-74
2022/03/09 01:34:57;;;;;;;7.68;4.20;;;;;;;-0.41;86.50;97082.09;4994118;28;20300;-71
2022/03/09 01:37:23;;;;;;;6.15;3.67;;;;;;;-0.39;85.51;97087.19;4994558;28;20469;-72
2022/03/09 01:39:51;;;;;;;10.90;3.42;;;;;;;-0.36;84.73;97076.34;4993455;28;20053;-72
2022/03/09 01:42:16;;;;;;;12.23;4.55;;;;;;;-0.37;85.32;97080.78;4994820;28;20462;-71
2022/03/09 01:44:42;;;;;;;10.52;4.18;;;;;;;-0.44;85.86;97079.00;4995032;28;20033;-74
2022/03/09 01:47:07;;;;;;;8.88;4.18;;;;;;;-0.54;86.53;97080.94;4996712;28;20556;-72
2022/03/09 01:49:33;;;;;;;10.73;4.22;;;;;;;-0.67;88.07;97076.19;4992335;28;20449;-74
2022/03/09 01:52:00;;;;;;;7.68;3.72;;;;;;;-0.74;88.53;97083.06;4993977;28;20073;-70
2022/03/09 01:54:27;;;;;;;12.77;4.30;;;;;;;-0.68;87.64;97075.34;4992375;28;20034;-74
2022/03/09 01:56:53;;;;;;;9.60;4.65;;;;;;;-0.71;87.94;97073.03;4993696;28;20080;-74
2022/03/09 01:59:19;;;;;;;8.05;3.42;;;;;;;-0.69;87.76;97075.53;4993724;28;20124;-74
2022/03/09 02:01:46;;;;;;;7.22;3.67;;;;;;;-0.59;87.26;97068.28;4993298;28;20319;-73
2022/03/09 02:04:12;;;;;;;7.40;4.03;;;;;;;-0.56;86.31;97065.31;4993452;28;20540;-71
2022/03/09 02:06:39;;;;;;;10.93;4.72;;;;;;;-0.62;85.81;97076.53;4994024;28;20112;-74
2022/03/09 02:11:52;;;;;;;9.52;4.97;;;;;;;-0.74;87.25;97078.63;4990701;28;20061;-71
2022/03/09 02:14:37;;;;;;;10.57;5.22;;;;;;;-0.81;86.67;97079.44;4993242;28;20109;-71
2022/03/09 02:17:06;;;;;;;14.40;5.22;;;;;;;-0.95;89.14;97080.88;4994303;28;20042;-71
2022/03/09 02:19:32;;;;;;;12.90;5.10;;;;;;;-1.05;89.14;97081.03;4992423;28;20348;-72
2022/03/09 02:22:19;;;;;;;8.40;4.80;;;;;;;-1.17;89.86;97080.53;4994581;28;20034;-71
2022/03/09 02:24:46;;;;;;;9.55;4.68;;;;;;;-1.37;91.60;97081.75;4990225;28;20133;-73
2022/03/09 02:27:11;;;;;;;13.18;5.15;;;;;;;-1.40;93.75;97089.97;4992879;28;20045;-74
2022/03/09 02:29:37;;;;;;;12.95;5.15;;;;;;;-1.50;93.01;97090.06;4992969;28;20527;-75
2022/03/09 02:32:04;;;;;;;10.02;5.25;;;;;;;-1.56;93.29;97084.63;4992211;28;20106;-71
2022/03/09 02:34:30;;;;;;;10.73;4.78;;;;;;;-1.59;93.93;97093.66;4993857;28;20204;-71
2022/03/09 02:36:56;;;;;;;9.82;4.70;;;;;;;-1.64;94.49;97095.91;4993152;28;20563;-71
2022/03/09 02:39:22;;;;;;;11.25;5.63;;;;;;;-1.68;95.74;97089.34;4992115;28;20136;-71
2022/03/09 02:41:47;;;;;;;8.75;4.32;;;;;;;-1.70;96.43;97078.19;4994655;28;20072;-75
2022/03/09 02:44:13;;;;;;;10.40;5.40;;;;;;;-1.76;96.14;97076.19;4993870;28;20116;-71
2022/03/09 02:46:39;;;;;;;12.15;4.88;;;;;;;-1.71;94.55;97077.38;4994660;28;20053;-74
2022/03/09 02:49:05;;;;;;;9.50;5.00;;;;;;;-1.78;96.42;97080.78;4991545;28;20034;-71
2022/03/09 02:51:30;;;;;;;9.10;4.60;;;;;;;-1.75;95.40;97083.88;4994413;28;20045;-71
2022/03/09 02:53:56;;;;;;;11.20;4.90;;;;;;;-1.84;96.68;97078.75;4992800;28;20321;-74
2022/03/09 02:56:21;;;;;;;9.25;4.50;;;;;;;-1.83;96.23;97086.47;4993557;28;20454;-73
2022/03/09 02:58:47;;;;;;;14.00;4.55;;;;;;;-1.75;96.40;97067.31;4993085;28;20072;-73
2022/03/09 03:01:13;;;;;;;10.77;4.45;;;;;;;-1.65;95.64;97072.44;4993341;28;20042;-71
2022/03/09 03:03:43;;;;;;;8.57;4.38;;;;;;;-1.48;94.66;97074.16;4992458;28;20056;-73
2022/03/09 03:06:10;;;;;;;6.80;3.20;;;;;;;-1.34;93.40;97070.94;4993768;28;20366;-73
2022/03/09 03:08:37;;;;;;;10.95;4.35;;;;;;;-1.46;93.78;97045.97;4992447;28;20041;-74
2022/03/09 03:11:04;;;;;;;10.88;4.88;;;;;;;-1.29;93.00;97070.47;4995623;28;20048;-74
2022/03/09 03:13:30;;;;;;;10.15;4.30;;;;;;;-1.37;93.18;97070.44;4993249;28;20065;-71
2022/03/09 03:15:56;;;;;;;9.75;4.88;;;;;;;-1.45;94.08;97077.31;4992042;28;20053;-71
2022/03/09 03:18:22;;;;;;;8.10;3.90;;;;;;;-1.47;93.88;97074.03;4991070;28;20099;-71
2022/03/09 03:20:49;;;;;;;9.30;4.20;;;;;;;-1.45;94.00;97068.59;4993405;28;20435;-71
2022/03/09 03:23:15;;;;;;;11.95;4.45;;;;;;;-1.44;94.04;97068.44;4992760;28;20048;-71
2022/03/09 03:25:40;;;;;;;8.75;4.32;;;;;;;-1.57;95.17;97075.09;4992863;28;20466;-71
2022/03/09 03:28:06;;;;;;;10.50;5.28;;;;;;;-1.64;94.33;97064.41;4994533;28;20057;-74
2022/03/09 03:30:31;;;;;;;7.70;3.90;;;;;;;-1.54;95.05;97064.31;4990687;28;20685;-71
2022/03/09 03:32:57;;;;;;;10.38;4.85;;;;;;;-1.59;94.68;97051.66;4992541;28;20109;-71
2022/03/09 03:35:22;;;;;;;7.47;4.30;;;;;;;-1.44;94.31;97062.38;4994095;28;20066;-71
2022/03/09 03:37:48;;;;;;;11.48;5.05;;;;;;;-1.41;93.97;97064.66;4991853;28;20105;-74
2022/03/09 03:40:14;;;;;;;12.18;4.88;;;;;;;-1.47;94.45;97060.91;4991802;28;20534;-71
2022/03/09 03:42:39;;;;;;;7.97;3.80;;;;;;;-1.45;94.53;97052.84;4993667;28;20080;-72
2022/03/09 03:45:05;;;;;;;10.88;4.97;;;;;;;-1.58;95.01;97052.47;4993478;28;20179;-72
2022/03/09 03:47:31;;;;;;;11.30;5.50;;;;;;;-1.64;94.87;97059.16;4996383;28;20112;-70
2022/03/09 03:49:56;;;;;;;11.52;4.63;;;;;;;-1.68;94.54;97060.47;4993983;28;20049;-71
2022/03/09 03:52:22;;;;;;;8.88;4.40;;;;;;;-1.75;96.61;97064.69;4995573;28;20202;-71
2022/03/09 03:54:47;;;;;;;12.20;4.55;;;;;;;-1.74;96.06;97068.97;4998022;28;20065;-71
2022/03/09 03:57:13;;;;;;;9.15;4.50;;;;;;;-1.76;95.57;97084.06;4997568;28;20225;-73
2022/03/09 03:59:38;;;;;;;11.98;5.20;;;;;;;-1.79;96.45;97084.34;5013591;28;20547;-72
2022/03/09 04:02:04;;;;;;;11.00;4.55;;;;;;;-1.88;96.63;97095.78;4996418;28;20397;-71
2022/03/09 04:04:29;;;;;;;9.82;4.43;;;;;;;-1.96;98.06;97100.00;4999176;28;20026;-74
2022/03/09 04:06:55;;;;;;;10.48;4.78;;;;;;;-2.06;98.54;97096.66;4998342;28;20547;-71
2022/03/09 04:09:21;;;;;;;9.20;4.93;;;;;;;-2.09;98.03;97096.16;4995506;28;20029;-74
2022/03/09 04:11:46;;;;;;;10.98;4.90;;;;;;;-2.15;99.24;97091.53;4998463;28;20112;-72
2022/03/09 04:14:12;;;;;;;11.30;4.38;;;;;;;-2.15;99.11;97087.09;4999226;28;20052;-71
2022/03/09 04:16:38;;;;;;;10.50;4.95;;;;;;;-2.05;98.41;97087.81;4997891;28;20528;-72
2022/03/09 04:19:03;;;;;;;10.25;4.68;;;;;;;-2.00;97.71;97082.94;4994373;28;20033;-71
2022/03/09 04:21:29;;;;;;;10.98;4.80;;;;;;;-1.93;97.64;97087.56;4997035;28;20199;-72
2022/03/09 04:23:54;;;;;;;11.63;4.30;;;;;;;-1.90;96.96;97088.06;4997064;28;20162;-73
2022/03/09 04:26:20;;;;;;;9.98;4.18;;;;;;;-1.93;97.66;97091.00;4998580;28;20067;-75
2022/03/09 04:28:45;;;;;;;8.88;4.25;;;;;;;-2.01;97.67;97083.91;4997614;28;20038;-71
2022/03/09 04:31:11;;;;;;;10.00;4.32;;;;;;;-2.04;98.26;97091.25;4995513;28;20168;-72
2022/03/09 04:33:37;;;;;;;8.60;4.78;;;;;;;-2.08;99.15;97087.31;4998625;28;20144;-71
2022/03/09 04:36:05;;;;;;;10.68;5.00;;;;;;;-2.10;98.78;97094.47;4993371;28;20030;-71
2022/03/09 04:38:30;;;;;;;11.75;4.00;;;;;;;-2.12;99.12;97081.53;4995893;28;20030;-73
2022/03/09 04:40:55;;;;;;;10.30;4.72;;;;;;;-2.01;98.80;97080.47;4996737;28;20443;-71
2022/03/09 04:43:21;;;;;;;22.45;5.10;;;;;;;-2.06;99.02;97086.16;4998521;28;20232;-74
2022/03/09 04:45:47;;;;;;;10.70;4.40;;;;;;;-2.06;98.90;97077.47;4996927;28;20069;-72
2022/03/09 04:48:13;;;;;;;12.80;5.03;;;;;;;-2.04;99.12;97083.38;4995473;28;20153;-75
2022/03/09 04:50:38;;;;;;;8.60;4.18;;;;;;;-2.04;98.97;97084.22;4998165;28;20140;-74
2022/03/09 04:53:05;;;;;;;9.65;4.63;;;;;;;-2.04;98.50;97081.59;5004281;28;20400;-74
2022/03/09 04:55:30;;;;;;;12.25;5.15;;;;;;;-2.02;98.71;97077.03;4998515;28;20038;-71
2022/03/09 04:57:55;;;;;;;13.88;5.38;;;;;;;-1.98;98.65;97072.28;4996487;28;20041;-72
2022/03/09 05:00:21;;;;;;;9.80;4.43;;;;;;;-1.87;97.69;97077.25;4996932;28;20025;-73
2022/03/09 05:02:47;;;;;;;9.52;4.68;;;;;;;-1.80;96.91;97082.69;4998061;28;20041;-74
2022/03/09 05:05:12;;;;;;;10.10;4.30;;;;;;;-1.85;97.66;97079.75;4997374;28;20369;-72
2022/03/09 05:07:40;;;;;;;10.60;4.22;;;;;;;-1.92;98.07;97081.34;4998472;28;20457;-71
2022/03/09 05:10:05;;;;;;;10.32;4.32;;;;;;;-1.92;98.07;97086.59;4997721;28;20052;-71
2022/03/09 05:12:31;;;;;;;11.13;3.83;;;;;;;-2.00;98.79;97080.31;5000295;28;20034;-71
2022/03/09 05:14:57;;;;;;;9.50;4.43;;;;;;;-1.98;98.26;97083.59;4995305;28;20037;-71
2022/03/09 05:17:22;;;;;;;12.60;4.57;;;;;;;-2.16;99.18;97082.84;4997244;28;20705;-75
2022/03/09 05:19:48;;;;;;;10.00;4.05;;;;;;;-2.20;100.00;97078.03;4996960;28;20041;-72
2022/03/09 05:22:13;;;;;;;10.80;4.63;;;;;;;-2.19;99.81;97077.06;4997493;28;20036;-71
2022/03/09 05:24:40;;;;;;;10.77;4.38;;;;;;;-2.11;100.00;97080.56;4996114;28;20060;-72
2022/03/09 05:27:06;;;;;;;8.02;4.35;;;;;;;-2.03;99.22;97077.16;4995730;28;20121;-71
2022/03/09 05:29:31;;;;;;;9.90;5.05;;;;;;;-2.03;99.52;97079.78;4997722;28;20044;-71
2022/03/09 05:31:56;;;;;;;10.00;4.57;;;;;;;-2.10;99.69;97076.97;4992947;28;20042;-71
2022/03/09 05:34:22;;;;;;;11.75;4.47;;;;;;;-2.03;99.13;97082.41;4996111;28;20532;-72
2022/03/09 05:36:47;;;;;;;11.82;4.60;;;;;;;-2.02;98.98;97082.28;4996674;28;20037;-71
2022/03/09 05:39:13;;;;;;;11.80;4.57;;;;;;;-2.05;99.26;97073.88;4995652;28;20187;-74
2022/03/09 05:41:39;;;;;;;10.50;4.22;;;;;;;-2.11;100.00;97093.66;4998836;28;20029;-71
2022/03/09 05:44:05;;;;;;;8.88;4.60;;;;;;;-2.15;99.45;97083.66;4997890;28;20040;-71
2022/03/09 05:46:30;;;;;;;11.10;4.22;;;;;;;-2.11;99.04;97093.66;4995926;28;20034;-73
2022/03/09 05:48:56;;;;;;;9.65;4.43;;;;;;;-2.25;100.00;97100.31;4995092;28;20045;-72
2022/03/09 05:51:22;;;;;;;11.98;4.95;;;;;;;-2.29;100.00;97103.38;4993673;28;20145;-70
2022/03/09 05:53:47;;;;;;;10.50;5.35;;;;;;;-2.32;100.00;97108.94;4996694;28;20712;-71
2022/03/09 05:56:13;;;;;;;13.25;4.95;;;;;;;-2.25;100.00;97113.41;4996877;28;20100;-71
2022/03/09 05:58:38;;;;;;;11.30;4.00;;;;;;;-2.18;100.00;97113.59;4998385;28;20112;-72
2022/03/09 06:01:04;;;;;;;9.38;4.85;;;;;;;-2.20;100.00;97114.75;4993991;28;20097;-71
2022/03/09 06:03:29;;;;;;;7.45;4.38;;;;;;;-2.20;100.00;97115.56;4997920;28;20069;-71
2022/03/09 06:05:55;;;;;;;6.97;3.63;;;;;;;-2.07;99.75;97109.94;4996990;28;20085;-75
2022/03/09 06:08:20;;;;;;;11.70;4.20;;;;;;;-2.04;99.99;97118.31;4998081;28;20058;-71
2022/03/09 06:10:46;;;;;;;11.23;4.93;;;;;;;-2.02;99.68;97129.50;4997220;28;20511;-73
2022/03/09 06:13:12;;;;;;;10.20;5.22;;;;;;;-1.98;98.38;97130.81;4997770;28;20362;-73
2022/03/09 06:15:38;;;;;;;11.02;4.75;;;;;;;-1.98;99.64;97127.38;4994378;28;20104;-71
2022/03/09 06:18:03;;;;;;;8.63;4.45;;;;;;;-1.92;99.02;97133.81;4995241;28;20029;-71
2022/03/09 06:20:29;;;;;;;12.57;5.68;;;;;;;-1.94;100.00;97141.00;4997154;28;20056;-74
2022/03/09 06:22:55;;;;;;;10.85;4.75;;;;;;;-1.99;100.00;97149.34;4996865;28;20290;-71
2022/03/09 06:25:21;;;;;;;11.68;5.40;;;;;;;-1.96;99.82;97146.38;4996059;28;20117;-71
2022/03/09 06:27:48;;;;;;;11.65;5.35;;;;;;;-1.84;100.00;97139.09;4995558;28;20353;-73
2022/03/09 06:30:15;;;;;;;11.88;5.57;;;;;;;-1.80;100.00;97137.81;4994688;28;20034;-72
2022/03/09 06:32:42;;;;;;;9.88;4.72;;;;;;;-1.76;99.85;97136.53;4996648;28;20551;-73
2022/03/09 06:35:09;;;;;;;11.63;4.75;;;;;;;-1.74;99.94;97140.63;4995276;28;20045;-72
2022/03/09 06:37:35;;;;;;;10.85;4.60;;;;;;;-1.70;99.74;97138.53;4996378;28;20034;-70
2022/03/09 06:40:01;;;;;;;10.85;5.18;;;;;;;-1.70;100.00;97146.41;4994287;28;20065;-72
2022/03/09 06:42:27;;;;;;;10.93;4.05;;;;;;;-1.71;100.00;97142.16;4997864;28;20555;-70
2022/03/09 06:44:53;;;;;;;7.32;3.97;;;;;;;-1.64;99.85;97145.78;4995684;28;20179;-70
2022/03/09 06:47:19;;;;;;;9.50;4.90;;;;;;;-1.59;99.07;97154.00;4994939;28;20038;-73
2022/03/09 06:49:45;;;;;;;8.02;4.00;;;;;;;-1.55;99.57;97151.91;4994074;28;20045;-74
2022/03/09 06:52:11;;;;;;;15.88;5.47;;;;;;;-1.50;98.97;97158.31;5010443;28;20482;-70
2022/03/09 06:54:36;;;;;;;9.90;4.63;;;;;;;-1.45;98.52;97163.94;4995210;28;20112;-70
2022/03/09 06:57:02;;;;;;;8.38;3.08;;;;;;;-1.39;98.13;97161.69;4995646;28;20132;-70
2022/03/09 06:59:27;;;;;;;13.32;5.20;;;;;;;-1.37;98.74;97162.34;4997020;28;20080;-71
2022/03/09 07:01:53;;;;;;;11.80;5.47;;;;;;;-1.36;98.14;97161.34;4995852;28;20050;-74
2022/03/09 07:04:18;;;;;;;13.10;5.68;;;;;;;-1.28;98.36;97166.66;5012868;28;20529;-73
2022/03/09 07:06:45;;;;;;;5.55;3.22;;;;;;;-1.18;97.61;97157.66;4997588;28;20045;-70
2022/03/09 07:09:10;;;;;;;14.63;5.35;;;;;;;-1.10;98.21;97167.38;4993668;28;20042;-72
2022/03/09 07:11:36;;;;;;;9.02;4.43;;;;;;;-1.09;98.27;97169.00;4998944;28;20045;-70
2022/03/09 07:14:01;;;;;;;9.88;4.88;;;;;;;-1.04;97.95;97160.66;4994584;28;20049;-71
2022/03/09 07:16:27;;;;;;;10.23;4.57;;;;;;;-0.99;98.45;97164.47;4994924;28;20465;-71
2022/03/09 07:18:52;;;;;;;13.45;5.47;;;;;;;-0.86;96.89;97164.00;4993384;28;20489;-72
2022/03/09 07:21:18;;;;;;;18.92;6.57;;;;;;;-0.76;95.69;97172.59;4995191;28;20038;-70
2022/03/09 07:23:44;;;;;;;15.40;4.80;;;;;;;-0.61;95.08;97173.63;4995239;28;20093;-70
2022/03/09 07:26:09;;;;;;;10.82;5.05;;;;;;;-0.58;94.78;97167.22;4993016;28;20505;-70
2022/03/09 07:28:35;;;;;;;14.43;5.32;;;;;;;-0.39;93.54;97163.44;4993915;28;20033;-71
2022/03/09 07:31:01;;;;;;;14.50;4.85;;;;;;;-0.34;93.70;97161.97;4995587;28;20030;-71
2022/03/09 07:33:27;;;;;;;10.68;5.10;;;;;;;-0.26;93.45;97158.53;4999860;28;20041;-71
2022/03/09 07:35:53;;;;;;;10.00;3.90;;;;;;;-0.15;92.61;97166.13;4996733;28;20038;-71
2022/03/09 07:38:18;;;;;;;13.68;5.72;;;;;;;-0.10;92.28;97157.72;5001042;28;20038;-71
2022/03/09 07:40:44;;;;;;;8.15;4.13;;;;;;;0.11;88.18;97165.13;4998905;28;20611;-71
2022/03/09 07:43:10;;;;;;;12.30;5.68;;;;;;;0.23;88.08;97169.91;4998506;28;22273;-71
2022/03/09 07:45:35;;;;;;;7.10;3.78;;;;;;;0.35;86.81;97162.47;4999977;28;20030;-71
2022/03/09 07:48:01;;;;;;;8.68;4.68;;;;;;;0.41;86.13;97160.97;5012298;28;20407;-71
2022/03/09 07:50:27;;;;;;;8.13;4.38;;;;;;;0.48;86.75;97164.59;4996244;28;20041;-71
2022/03/09 07:52:52;;;;;;;9.30;4.60;;;;;;;0.54;86.52;97179.69;4995350;28;20139;-71
2022/03/09 07:55:19;;;;;;;13.43;4.57;;;;;;;0.61;85.76;97170.13;5000589;28;20180;-72
2022/03/09 07:57:45;;;;;;;18.90;5.38;;;;;;;0.68;85.17;97186.09;4999522;28;20093;-71
2022/03/09 08:00:12;;;;;;;21.73;5.65;;;;;;;0.71;87.05;97180.50;4999799;28;20030;-71
2022/03/09 08:02:38;;;;;;;10.48;5.00;;;;;;;0.81;84.73;97181.13;4998555;28;20516;-71
2022/03/09 08:05:04;;;;;;;8.15;3.22;;;;;;;0.92;82.31;97188.66;5001261;28;20042;-71
2022/03/09 08:07:30;;;;;;;12.07;4.20;;;;;;;1.00;82.21;97191.25;5002643;28;20029;-72
2022/03/09 08:09:56;;;;;;;10.98;5.10;;;;;;;1.05;83.36;97183.66;5000411;28;20034;-71
2022/03/09 08:12:21;;;;;;;9.82;3.95;;;;;;;1.13;82.86;97189.91;5000668;28;20309;-72
2022/03/09 08:14:47;;;;;;;9.55;4.63;;;;;;;1.16;83.01;97187.72;5000679;28;20041;-73
2022/03/09 08:17:12;;;;;;;5.53;2.75;;;;;;;1.27;81.09;97190.00;5013958;28;20038;-72
2022/03/09 08:19:38;;;;;;;11.60;5.32;;;;;;;1.33;82.10;97191.97;4999651;28;20465;-73
2022/03/09 08:22:03;;;;;;;9.23;4.68;;;;;;;1.36;84.42;97196.88;5001143;28;20026;-71
2022/03/09 08:24:29;;;;;;;7.97;3.45;;;;;;;1.52;81.12;97189.88;5000784;28;20072;-71
2022/03/09 08:26:55;;;;;;;11.55;5.40;;;;;;;1.58;80.55;97194.47;4998089;28;20044;-73
2022/03/09 08:29:20;;;;;;;6.97;3.58;;;;;;;1.66;79.34;97189.94;4999781;28;20400;-71
2022/03/09 08:31:46;;;;;;;8.65;4.70;;;;;;;1.72;80.53;97193.72;4997874;28;20068;-71
2022/03/09 08:34:15;;;;;;;6.45;3.15;;;;;;;1.81;79.44;97202.41;5000012;28;20104;-71
2022/03/09 08:36:41;;;;;;;6.47;3.38;;;;;;;1.87;79.37;97207.81;4998568;28;20559;-70
2022/03/09 08:39:06;;;;;;;6.28;3.45;;;;;;;1.94;77.01;97206.06;4996806;28;20046;-71
2022/03/09 08:41:32;;;;;;;6.03;2.92;;;;;;;2.10;73.85;97197.25;4997767;28;20034;-71
2022/03/09 08:43:58;;;;;;;11.40;4.88;;;;;;;2.24;75.05;97193.78;4997672;28;20088;-71
2022/03/09 08:46:23;;;;;;;10.70;5.15;;;;;;;2.34;74.69;97206.78;4999133;28;20033;-70
2022/03/09 08:48:49;;;;;;;9.82;3.90;;;;;;;2.46;74.82;97212.44;4999289;28;20057;-72
2022/03/09 08:51:20;;;;;;;7.57;3.63;;;;;;;2.59;70.38;97210.00;4997778;28;20558;-71
2022/03/09 08:53:46;;;;;;;12.02;5.03;;;;;;;2.64;67.87;97209.47;5005210;28;20041;-72
2022/03/09 08:56:11;;;;;;;11.68;4.95;;;;;;;2.60;63.33;97200.25;5002084;28;20471;-74
2022/03/09 08:58:37;;;;;;;9.15;4.35;;;;;;;2.74;64.39;97207.41;4999420;28;20208;-71
2022/03/09 09:01:03;;;;;;;11.93;5.00;;;;;;;2.76;61.90;97210.66;4996220;28;20488;-71
2022/03/09 09:03:30;;;;;;;11.95;5.30;;;;;;;2.82;63.90;97204.66;4997359;28;20475;-70
2022/03/09 09:05:55;;;;;;;12.02;5.22;;;;;;;2.95;61.45;97207.47;4998568;28;20073;-71
2022/03/09 09:08:21;;;;;;;8.63;4.65;;;;;;;3.03;61.17;97207.38;5000545;28;20100;-71
2022/03/09 09:10:46;;;;;;;11.90;5.10;;;;;;;3.16;59.43;97221.81;4999078;28;20652;-73
2022/03/09 09:13:12;;;;;;;7.10;4.03;;;;;;;3.25;60.24;97215.41;4998554;28;20069;-71
2022/03/09 09:15:41;;;;;;;9.40;4.68;;;;;;;3.44;61.03;97208.75;4998778;28;20026;-71
2022/03/09 09:18:07;;;;;;;11.02;4.80;;;;;;;3.52;59.42;97209.44;4998113;28;20140;-73
2022/03/09 09:20:34;;;;;;;10.95;5.28;;;;;;;3.66;59.90;97209.59;4998119;28;20099;-70
2022/03/09 09:22:59;;;;;;;11.05;4.50;;;;;;;3.48;56.15;97216.09;4998295;28;20038;-71
2022/03/09 09:25:26;;;;;;;15.60;4.38;;;;;;;3.46;56.42;97207.53;4999277;28;20057;-73
2022/03/09 09:27:54;;;;;;;9.18;4.53;;;;;;;3.45;54.23;97207.72;4996840;28;20034;-73
2022/03/09 09:30:21;;;;;;;5.82;3.22;;;;;;;3.48;54.96;97216.09;4996323;28;20081;-70
2022/03/09 09:32:47;;;;;;;11.93;4.78;;;;;;;3.64;57.26;97217.72;4996092;28;20117;-71
2022/03/09 09:35:14;;;;;;;8.55;3.92;;;;;;;3.61;54.60;97215.47;4996461;28;20300;-70
2022/03/09 09:37:40;;;;;;;9.23;3.78;;;;;;;3.68;55.39;97210.25;5013239;28;20432;-70
2022/03/09 09:40:07;;;;;;;8.20;3.85;;;;;;;3.66;52.56;97222.81;4997852;28;20107;-71
2022/03/09 09:42:33;;;;;;;8.35;4.25;;;;;;;3.73;53.29;97213.94;4996519;28;20528;-73
2022/03/09 09:45:03;;;;;;;11.50;5.05;;;;;;;3.97;52.37;97220.75;4998652;28;20045;-71
2022/03/09 09:47:33;;;;;;;8.18;4.38;;;;;;;4.01;51.64;97216.69;4996007;28;20041;-71
2022/03/09 09:49:59;;;;;;;8.57;4.88;;;;;;;4.11;51.12;97219.84;4993209;28;20451;-72
2022/03/09 09:52:26;;;;;;;7.88;3.78;;;;;;;4.15;51.43;97218.47;4996026;28;20042;-71
2022/03/09 09:54:54;;;;;;;13.05;5.93;;;;;;;4.26;53.18;97224.25;5000169;28;20099;-72
2022/03/09 09:57:19;;;;;;;8.65;4.60;;;;;;;4.43;51.28;97218.50;4999627;28;20146;-70
2022/03/09 09:59:45;;;;;;;10.27;4.68;;;;;;;4.57;50.01;97221.28;4995706;28;20481;-72
2022/03/09 10:02:12;;;;;;;9.40;5.90;;;;;;;4.68;50.55;97216.28;4996955;28;20038;-71
2022/03/09 10:04:41;;;;;;;7.28;3.80;;;;;;;4.84;50.12;97209.03;4999491;28;20041;-71
2022/03/09 10:07:07;;;;;;;9.50;4.85;;;;;;;5.13;48.04;97211.44;4997592;28;20385;-71
2022/03/09 10:09:40;;;;;;;8.63;4.70;;;;;;;5.07;47.31;97212.25;4993923;28;20362;-71
2022/03/09 10:12:08;;;;;;;10.57;4.50;;;;;;;5.43;46.62;97205.88;4998104;28;20042;-71
2022/03/09 10:14:44;;;;;;;8.10;4.57;;;;;;;5.43;47.19;97200.56;4999116;28;20038;-71
2022/03/09 10:17:15;;;;;;;6.72;3.60;;;;;;;5.65;46.32;97198.63;4996733;28;20049;-71
2022/03/09 10:19:44;;;;;;;11.73;5.95;;;;;;;6.34;45.74;97199.22;4996571;28;20034;-71
2022/03/09 10:22:25;;;;;;;12.40;5.82;;;;;;;7.28;43.06;97195.41;4996833;28;20480;-71
2022/03/09 10:24:52;;;;;;;10.27;4.78;;;;;;;8.27;39.90;97186.13;4998864;28;20037;-74
2022/03/09 10:27:36;;;;;;;13.43;5.85;;;;;;;10.86;35.27;97190.84;4996168;28;20037;-71
2022/03/09 10:30:33;;;;;;;9.30;5.60;;;;;;;11.65;32.73;97175.16;4995451;28;20472;-73
2022/03/09 10:33:10;;;;;;;9.52;4.93;;;;;;;12.59;31.10;97190.03;4993960;28;20072;-71
2022/03/09 10:35:36;;;;;;;11.85;5.57;;;;;;;13.48;29.37;97187.38;4996051;28;20087;-71
2022/03/09 10:38:04;;;;;;;8.02;4.60;;;;;;;12.61;29.92;97194.13;4994992;28;20038;-71
2022/03/09 10:40:32;;;;;;;10.10;5.70;;;;;;;13.46;28.59;97181.41;5004564;28;20050;-72
2022/03/09 10:43:12;;;;;;;8.70;4.53;;;;;;;13.76;27.45;97189.03;4994427;28;20465;-71
2022/03/09 10:46:07;;;;;;;12.30;5.65;;;;;;;15.68;26.29;97193.66;4995833;28;20119;-71
2022/03/09 10:49:00;;;;;;;10.00;5.88;;;;;;;15.03;25.83;97190.31;4996404;28;20099;-71
2022/03/09 10:51:44;;;;;;;6.45;3.78;;;;;;;15.07;25.54;97183.31;4993825;28;20458;-74
2022/03/09 10:54:20;;;;;;;8.43;4.38;;;;;;;14.11;26.04;97186.75;4995084;28;21006;-72
2022/03/09 10:56:47;;;;;;;7.65;3.58;;;;;;;14.84;25.44;97189.06;4998231;28;20133;-72
2022/03/09 10:59:18;;;;;;;9.48;5.78;;;;;;;14.83;25.59;97179.38;4996146;28;20092;-71
2022/03/09 11:02:00;;;;;;;;;;;;;;;15.29;24.55;97173.22;4997588;28;20046;-71
2022/03/09 11:04:27;;;;;;;8.93;5.20;;;;;;;15.45;24.46;97174.09;4999975;28;19909;-73
2022/03/09 11:06:54;;;;;;;13.00;5.82;;;;;;;16.34;24.16;97166.84;5001790;28;20065;-73
2022/03/09 11:09:20;;;;;;;9.02;4.93;;;;;;;16.68;23.15;97165.28;5000798;28;20044;-71
2022/03/09 11:11:48;;;;;;;8.80;4.68;;;;;;;17.07;23.41;97163.94;5000535;28;20053;-72
2022/03/09 11:14:15;;;;;;;6.55;4.00;;;;;;;17.90;21.94;97168.84;5000905;28;20041;-71
2022/03/09 11:16:45;;;;;;;10.25;6.75;;;;;;;17.26;22.97;97167.66;5002088;28;20034;-73
2022/03/09 11:19:11;;;;;;;13.38;6.00;;;;;;;19.21;22.04;97175.22;4996840;28;20053;-71
2022/03/09 11:21:37;;;;;;;14.38;7.50;;;;;;;18.93;21.21;97171.44;5000636;28;20038;-72
2022/03/09 11:24:08;;;;;;;13.98;6.30;;;;;;;19.52;20.24;97163.25;4999710;28;20830;-72
2022/03/09 11:26:36;;;;;;;13.70;6.40;;;;;;;17.84;21.43;97175.38;5003762;28;20044;-72
2022/03/09 11:29:09;;;;;;;10.48;6.80;;;;;;;18.55;21.40;97164.94;5000698;28;20495;-73
2022/03/09 11:31:48;;;;;;;11.70;6.47;;;;;;;18.17;21.44;97171.16;4306004;28;10001207;-71